sensor_id;sensor_type;location;lat;lon;timestamp;P1;durP1;ratioP1;P2;durP2;ratioP2
9124;SDS011;4597;48.730;9.114;2024-03-07T00:02:04;15.83;;;9.40;;
9124;SDS011;4597;48.730;9.114;2024-03-07T00:04:29;14.13;;;9.17;;
9124;SDS011;4597;48.730;9.114;2024-03-07T00:06:55;11.73;;;8.07;;
9124;SDS011;4597;48.730;9.114;2024-03-07T00:09:20;13.43;;;9.03;;
9124;SDS011;4597;48.730;9.114;2024-03-07T00:11:49;12.40;;;8.90;;
9124;SDS011;4597;48.730;9.114;2024-03-07T00:14:15;14.17;;;8.73;;
9124;SDS011;4597;48.730;9.114;2024-03-07T00:16:40;13.43;;;8.37;;
9124;SDS011;4597;48.730;9.114;2024-03-07T00:19:06;12.77;;;8.33;;
9124;SDS011;4597;48.730;9.114;2024-03-07T00:21:32;14.73;;;9.13;;
9124;SDS011;4597;48.730;9.114;2024-03-07T00:23:57;15.93;;;9.53;;
9124;SDS011;4597;48.730;9.114;2024-03-07T00:26:24;14.37;;;9.37;;
9124;SDS011;4597;48.730;9.114;2024-03-07T00:28:50;14.23;;;9.73;;
9124;SDS011;4597;48.730;9.114;2024-03-07T00:31:16;12.47;;;8.93;;
9124;SDS011;4597;48.730;9.114;2024-03-07T00:33:41;18.23;;;9.23;;
9124;SDS011;4597;48.730;9.114;2024-03-07T00:36:07;16.30;;;10.03;;
9124;SDS011;4597;48.730;9.114;2024-03-07T00:38:33;13.83;;;9.23;;
9124;SDS011;4597;48.730;9.114;2024-03-07T00:40:59;13.70;;;8.77;;
9124;SDS011;4597;48.730;9.114;2024-03-07T00:43:24;14.33;;;9.33;;
9124;SDS011;4597;48.730;9.114;2024-03-07T00:45:50;18.40;;;9.97;;
9124;SDS011;4597;48.730;9.114;2024-03-07T00:48:16;15.90;;;9.93;;
9124;SDS011;4597;48.730;9.114;2024-03-07T00:50:42;14.63;;;9.37;;
9124;SDS011;4597;48.730;9.114;2024-03-07T00:53:07;16.87;;;10.07;;
9124;SDS011;4597;48.730;9.114;2024-03-07T00:55:33;14.60;;;9.23;;
9124;SDS011;4597;48.730;9.114;2024-03-07T00:57:59;17.40;;;10.87;;
9124;SDS011;4597;48.730;9.114;2024-03-07T01:00:24;16.63;;;10.07;;
9124;SDS011;4597;48.730;9.114;2024-03-07T01:02:50;15.50;;;9.40;;
9124;SDS011;4597;48.730;9.114;2024-03-07T01:05:18;15.73;;;9.43;;
9124;SDS011;4597;48.730;9.114;2024-03-07T01:07:44;12.93;;;8.87;;
9124;SDS011;4597;48.730;9.114;2024-03-07T01:10:11;20.67;;;10.53;;
9124;SDS011;4597;48.730;9.114;2024-03-07T01:12:37;15.80;;;9.60;;
9124;SDS011;4597;48.730;9.114;2024-03-07T01:15:03;19.47;;;11.30;;
9124;SDS011;4597;48.730;9.114;2024-03-07T01:17:32;16.43;;;10.50;;
9124;SDS011;4597;48.730;9.114;2024-03-07T01:19:57;17.10;;;10.40;;
9124;SDS011;4597;48.730;9.114;2024-03-07T01:22:23;19.73;;;10.30;;
9124;SDS011;4597;48.730;9.114;2024-03-07T01:24:49;17.23;;;10.53;;
9124;SDS011;4597;48.730;9.114;2024-03-07T01:27:18;14.10;;;9.70;;
9124;SDS011;4597;48.730;9.114;2024-03-07T01:29:43;15.77;;;9.93;;
9124;SDS011;4597;48.730;9.114;2024-03-07T01:32:09;17.77;;;10.50;;
9124;SDS011;4597;48.730;9.114;2024-03-07T01:34:35;17.30;;;10.30;;
9124;SDS011;4597;48.730;9.114;2024-03-07T01:37:01;18.07;;;10.50;;
9124;SDS011;4597;48.730;9.114;2024-03-07T01:39:26;17.10;;;10.43;;
9124;SDS011;4597;48.730;9.114;2024-03-07T01:41:52;18.10;;;10.27;;
9124;SDS011;4597;48.730;9.114;2024-03-07T01:44:17;15.97;;;10.27;;
9124;SDS011;4597;48.730;9.114;2024-03-07T01:46:43;19.53;;;11.87;;
9124;SDS011;4597;48.730;9.114;2024-03-07T01:49:09;13.97;;;9.60;;
9124;SDS011;4597;48.730;9.114;2024-03-07T01:51:35;16.23;;;9.93;;
9124;SDS011;4597;48.730;9.114;2024-03-07T01:54:02;15.23;;;9.60;;
9124;SDS011;4597;48.730;9.114;2024-03-07T01:56:28;19.30;;;11.63;;
9124;SDS011;4597;48.730;9.114;2024-03-07T01:58:54;18.63;;;10.80;;
9124;SDS011;4597;48.730;9.114;2024-03-07T02:01:21;20.10;;;10.80;;
9124;SDS011;4597;48.730;9.114;2024-03-07T02:03:47;15.17;;;10.73;;
9124;SDS011;4597;48.730;9.114;2024-03-07T02:06:13;20.63;;;11.27;;
9124;SDS011;4597;48.730;9.114;2024-03-07T02:08:39;17.77;;;11.67;;
9124;SDS011;4597;48.730;9.114;2024-03-07T02:11:05;16.63;;;10.53;;
9124;SDS011;4597;48.730;9.114;2024-03-07T02:13:30;17.67;;;11.13;;
9124;SDS011;4597;48.730;9.114;2024-03-07T02:15:56;18.03;;;11.90;;
9124;SDS011;4597;48.730;9.114;2024-03-07T02:18:22;17.63;;;11.10;;
9124;SDS011;4597;48.730;9.114;2024-03-07T02:20:48;17.43;;;11.37;;
9124;SDS011;4597;48.730;9.114;2024-03-07T02:23:14;18.27;;;11.63;;
9124;SDS011;4597;48.730;9.114;2024-03-07T02:25:40;21.63;;;11.43;;
9124;SDS011;4597;48.730;9.114;2024-03-07T02:28:05;18.50;;;11.27;;
9124;SDS011;4597;48.730;9.114;2024-03-07T02:30:32;17.00;;;11.30;;
9124;SDS011;4597;48.730;9.114;2024-03-07T02:33:00;18.93;;;11.43;;
9124;SDS011;4597;48.730;9.114;2024-03-07T02:35:32;20.87;;;11.50;;
9124;SDS011;4597;48.730;9.114;2024-03-07T02:38:02;22.27;;;12.27;;
9124;SDS011;4597;48.730;9.114;2024-03-07T02:40:28;19.90;;;12.27;;
9124;SDS011;4597;48.730;9.114;2024-03-07T02:42:54;18.20;;;12.30;;
9124;SDS011;4597;48.730;9.114;2024-03-07T02:45:19;19.00;;;11.63;;
9124;SDS011;4597;48.730;9.114;2024-03-07T02:47:45;22.23;;;12.17;;
9124;SDS011;4597;48.730;9.114;2024-03-07T02:50:11;18.30;;;11.90;;
9124;SDS011;4597;48.730;9.114;2024-03-07T02:52:37;21.00;;;12.60;;
9124;SDS011;4597;48.730;9.114;2024-03-07T02:55:02;22.93;;;12.40;;
9124;SDS011;4597;48.730;9.114;2024-03-07T02:57:29;20.83;;;11.83;;
9124;SDS011;4597;48.730;9.114;2024-03-07T02:59:55;21.57;;;12.70;;
9124;SDS011;4597;48.730;9.114;2024-03-07T03:02:21;20.63;;;12.43;;
9124;SDS011;4597;48.730;9.114;2024-03-07T03:04:47;22.17;;;13.57;;
9124;SDS011;4597;48.730;9.114;2024-03-07T03:07:12;21.63;;;12.77;;
9124;SDS011;4597;48.730;9.114;2024-03-07T03:09:38;19.37;;;11.53;;
9124;SDS011;4597;48.730;9.114;2024-03-07T03:12:08;18.97;;;12.40;;
9124;SDS011;4597;48.730;9.114;2024-03-07T03:14:34;20.83;;;12.17;;
9124;SDS011;4597;48.730;9.114;2024-03-07T03:16:59;22.13;;;11.93;;
9124;SDS011;4597;48.730;9.114;2024-03-07T03:19:25;20.57;;;12.13;;
9124;SDS011;4597;48.730;9.114;2024-03-07T03:21:51;21.57;;;12.97;;
9124;SDS011;4597;48.730;9.114;2024-03-07T03:24:17;23.67;;;13.17;;
9124;SDS011;4597;48.730;9.114;2024-03-07T03:26:43;22.27;;;12.47;;
9124;SDS011;4597;48.730;9.114;2024-03-07T03:29:08;20.53;;;12.03;;
9124;SDS011;4597;48.730;9.114;2024-03-07T03:31:36;18.83;;;11.43;;
9124;SDS011;4597;48.730;9.114;2024-03-07T03:34:02;20.10;;;12.17;;
9124;SDS011;4597;48.730;9.114;2024-03-07T03:36:27;20.83;;;12.03;;
9124;SDS011;4597;48.730;9.114;2024-03-07T03:38:54;22.50;;;13.53;;
9124;SDS011;4597;48.730;9.114;2024-03-07T03:41:20;16.67;;;11.27;;
9124;SDS011;4597;48.730;9.114;2024-03-07T03:43:45;18.50;;;11.30;;
9124;SDS011;4597;48.730;9.114;2024-03-07T03:46:12;20.87;;;12.07;;
9124;SDS011;4597;48.730;9.114;2024-03-07T03:48:40;18.10;;;11.33;;
9124;SDS011;4597;48.730;9.114;2024-03-07T03:51:07;18.30;;;11.70;;
9124;SDS011;4597;48.730;9.114;2024-03-07T03:53:33;23.67;;;11.83;;
9124;SDS011;4597;48.730;9.114;2024-03-07T03:55:58;16.57;;;10.93;;
9124;SDS011;4597;48.730;9.114;2024-03-07T03:58:24;18.23;;;12.50;;
9124;SDS011;4597;48.730;9.114;2024-03-07T04:00:50;18.10;;;10.97;;
9124;SDS011;4597;48.730;9.114;2024-03-07T04:03:16;18.33;;;11.73;;
9124;SDS011;4597;48.730;9.114;2024-03-07T04:05:41;20.93;;;11.70;;
9124;SDS011;4597;48.730;9.114;2024-03-07T04:08:07;19.03;;;12.03;;
9124;SDS011;4597;48.730;9.114;2024-03-07T04:10:32;19.00;;;11.93;;
9124;SDS011;4597;48.730;9.114;2024-03-07T04:12:58;20.33;;;11.57;;
9124;SDS011;4597;48.730;9.114;2024-03-07T04:15:24;19.20;;;10.97;;
9124;SDS011;4597;48.730;9.114;2024-03-07T04:17:51;19.43;;;11.47;;
9124;SDS011;4597;48.730;9.114;2024-03-07T04:20:17;20.73;;;12.00;;
9124;SDS011;4597;48.730;9.114;2024-03-07T04:22:43;22.07;;;11.90;;
9124;SDS011;4597;48.730;9.114;2024-03-07T04:25:09;21.37;;;12.30;;
9124;SDS011;4597;48.730;9.114;2024-03-07T04:27:38;19.67;;;12.87;;
9124;SDS011;4597;48.730;9.114;2024-03-07T04:30:05;21.67;;;12.37;;
9124;SDS011;4597;48.730;9.114;2024-03-07T04:32:32;19.73;;;11.33;;
9124;SDS011;4597;48.730;9.114;2024-03-07T04:34:59;18.10;;;11.23;;
9124;SDS011;4597;48.730;9.114;2024-03-07T04:37:25;19.87;;;12.33;;
9124;SDS011;4597;48.730;9.114;2024-03-07T04:39:52;19.07;;;11.90;;
9124;SDS011;4597;48.730;9.114;2024-03-07T04:42:18;17.33;;;10.87;;
9124;SDS011;4597;48.730;9.114;2024-03-07T04:44:43;19.90;;;11.37;;
9124;SDS011;4597;48.730;9.114;2024-03-07T04:47:09;23.03;;;12.57;;
9124;SDS011;4597;48.730;9.114;2024-03-07T04:49:35;20.13;;;12.60;;
9124;SDS011;4597;48.730;9.114;2024-03-07T04:52:01;20.63;;;13.40;;
9124;SDS011;4597;48.730;9.114;2024-03-07T04:54:28;21.87;;;11.97;;
9124;SDS011;4597;48.730;9.114;2024-03-07T04:56:55;21.87;;;12.23;;
9124;SDS011;4597;48.730;9.114;2024-03-07T04:59:21;20.80;;;12.30;;
9124;SDS011;4597;48.730;9.114;2024-03-07T05:01:48;19.90;;;11.60;;
9124;SDS011;4597;48.730;9.114;2024-03-07T05:04:17;18.30;;;11.83;;
9124;SDS011;4597;48.730;9.114;2024-03-07T05:06:43;20.57;;;11.90;;
9124;SDS011;4597;48.730;9.114;2024-03-07T05:09:09;21.23;;;12.67;;
9124;SDS011;4597;48.730;9.114;2024-03-07T05:11:48;20.20;;;12.17;;
9124;SDS011;4597;48.730;9.114;2024-03-07T05:14:16;22.57;;;11.43;;
9124;SDS011;4597;48.730;9.114;2024-03-07T05:16:44;21.30;;;12.27;;
9124;SDS011;4597;48.730;9.114;2024-03-07T05:19:09;22.17;;;12.40;;
9124;SDS011;4597;48.730;9.114;2024-03-07T05:21:35;20.67;;;12.33;;
9124;SDS011;4597;48.730;9.114;2024-03-07T05:24:05;18.87;;;11.80;;
9124;SDS011;4597;48.730;9.114;2024-03-07T05:26:32;21.53;;;11.27;;
9124;SDS011;4597;48.730;9.114;2024-03-07T05:29:02;19.50;;;11.57;;
9124;SDS011;4597;48.730;9.114;2024-03-07T05:31:37;21.87;;;11.87;;
9124;SDS011;4597;48.730;9.114;2024-03-07T05:34:09;17.77;;;11.13;;
9124;SDS011;4597;48.730;9.114;2024-03-07T05:36:34;22.90;;;11.57;;
9124;SDS011;4597;48.730;9.114;2024-03-07T05:39:01;23.30;;;13.00;;
9124;SDS011;4597;48.730;9.114;2024-03-07T05:41:33;19.80;;;11.90;;
9124;SDS011;4597;48.730;9.114;2024-03-07T05:43:59;20.97;;;12.63;;
9124;SDS011;4597;48.730;9.114;2024-03-07T05:46:25;23.37;;;12.43;;
9124;SDS011;4597;48.730;9.114;2024-03-07T05:48:50;19.93;;;11.73;;
9124;SDS011;4597;48.730;9.114;2024-03-07T05:51:20;20.10;;;11.10;;
9124;SDS011;4597;48.730;9.114;2024-03-07T05:53:49;19.03;;;10.97;;
9124;SDS011;4597;48.730;9.114;2024-03-07T05:56:15;19.80;;;11.97;;
9124;SDS011;4597;48.730;9.114;2024-03-07T05:58:41;19.20;;;10.73;;
9124;SDS011;4597;48.730;9.114;2024-03-07T06:01:06;21.37;;;12.87;;
9124;SDS011;4597;48.730;9.114;2024-03-07T06:03:33;21.33;;;11.57;;
9124;SDS011;4597;48.730;9.114;2024-03-07T06:06:01;17.40;;;11.00;;
9124;SDS011;4597;48.730;9.114;2024-03-07T06:08:27;19.33;;;11.87;;
9124;SDS011;4597;48.730;9.114;2024-03-07T06:10:52;19.27;;;11.13;;
9124;SDS011;4597;48.730;9.114;2024-03-07T06:13:18;18.73;;;11.10;;
9124;SDS011;4597;48.730;9.114;2024-03-07T06:15:44;19.13;;;11.00;;
9124;SDS011;4597;48.730;9.114;2024-03-07T06:18:11;19.10;;;10.97;;
9124;SDS011;4597;48.730;9.114;2024-03-07T06:20:38;21.47;;;11.83;;
9124;SDS011;4597;48.730;9.114;2024-03-07T06:23:05;20.13;;;11.30;;
9124;SDS011;4597;48.730;9.114;2024-03-07T06:25:31;18.53;;;11.20;;
9124;SDS011;4597;48.730;9.114;2024-03-07T06:28:15;19.47;;;11.07;;
9124;SDS011;4597;48.730;9.114;2024-03-07T06:30:44;20.07;;;11.67;;
9124;SDS011;4597;48.730;9.114;2024-03-07T06:33:10;18.57;;;11.30;;
9124;SDS011;4597;48.730;9.114;2024-03-07T06:35:36;18.17;;;10.43;;
9124;SDS011;4597;48.730;9.114;2024-03-07T06:38:03;18.47;;;11.80;;
9124;SDS011;4597;48.730;9.114;2024-03-07T06:40:30;17.53;;;11.13;;
9124;SDS011;4597;48.730;9.114;2024-03-07T06:42:57;19.60;;;11.87;;
9124;SDS011;4597;48.730;9.114;2024-03-07T06:45:23;19.40;;;10.93;;
9124;SDS011;4597;48.730;9.114;2024-03-07T06:47:49;18.80;;;10.80;;
9124;SDS011;4597;48.730;9.114;2024-03-07T06:50:15;18.93;;;11.37;;
9124;SDS011;4597;48.730;9.114;2024-03-07T06:52:42;19.87;;;11.97;;
9124;SDS011;4597;48.730;9.114;2024-03-07T06:55:09;21.27;;;11.80;;
9124;SDS011;4597;48.730;9.114;2024-03-07T06:57:36;20.27;;;11.47;;
9124;SDS011;4597;48.730;9.114;2024-03-07T07:00:01;20.77;;;12.07;;
9124;SDS011;4597;48.730;9.114;2024-03-07T07:02:35;23.73;;;12.53;;
9124;SDS011;4597;48.730;9.114;2024-03-07T07:05:07;22.47;;;11.57;;
9124;SDS011;4597;48.730;9.114;2024-03-07T07:07:37;19.43;;;10.73;;
9124;SDS011;4597;48.730;9.114;2024-03-07T07:10:12;18.27;;;10.93;;
9124;SDS011;4597;48.730;9.114;2024-03-07T07:12:42;19.93;;;12.37;;
9124;SDS011;4597;48.730;9.114;2024-03-07T07:15:08;18.63;;;11.37;;
9124;SDS011;4597;48.730;9.114;2024-03-07T07:17:35;20.83;;;11.93;;
9124;SDS011;4597;48.730;9.114;2024-03-07T07:20:01;17.30;;;10.57;;
9124;SDS011;4597;48.730;9.114;2024-03-07T07:22:26;21.30;;;11.70;;
9124;SDS011;4597;48.730;9.114;2024-03-07T07:24:52;21.17;;;11.63;;
9124;SDS011;4597;48.730;9.114;2024-03-07T07:27:17;19.13;;;10.63;;
9124;SDS011;4597;48.730;9.114;2024-03-07T07:29:46;18.90;;;10.77;;
9124;SDS011;4597;48.730;9.114;2024-03-07T07:32:12;15.83;;;10.70;;
9124;SDS011;4597;48.730;9.114;2024-03-07T07:34:37;18.63;;;11.80;;
9124;SDS011;4597;48.730;9.114;2024-03-07T07:37:04;22.83;;;12.10;;
9124;SDS011;4597;48.730;9.114;2024-03-07T07:39:29;19.23;;;11.00;;
9124;SDS011;4597;48.730;9.114;2024-03-07T07:41:55;18.67;;;11.13;;
9124;SDS011;4597;48.730;9.114;2024-03-07T07:44:21;17.07;;;11.40;;
9124;SDS011;4597;48.730;9.114;2024-03-07T07:46:46;21.07;;;12.10;;
9124;SDS011;4597;48.730;9.114;2024-03-07T07:49:14;18.83;;;11.57;;
9124;SDS011;4597;48.730;9.114;2024-03-07T07:51:39;20.73;;;12.10;;
9124;SDS011;4597;48.730;9.114;2024-03-07T07:54:05;19.73;;;12.07;;
9124;SDS011;4597;48.730;9.114;2024-03-07T07:56:30;17.47;;;10.90;;
9124;SDS011;4597;48.730;9.114;2024-03-07T07:58:56;17.07;;;10.63;;
9124;SDS011;4597;48.730;9.114;2024-03-07T08:01:22;18.90;;;10.50;;
9124;SDS011;4597;48.730;9.114;2024-03-07T08:03:47;18.53;;;11.17;;
9124;SDS011;4597;48.730;9.114;2024-03-07T08:06:13;20.97;;;11.73;;
9124;SDS011;4597;48.730;9.114;2024-03-07T08:08:38;16.10;;;11.07;;
9124;SDS011;4597;48.730;9.114;2024-03-07T08:11:05;20.60;;;11.87;;
9124;SDS011;4597;48.730;9.114;2024-03-07T08:13:31;19.40;;;11.97;;
9124;SDS011;4597;48.730;9.114;2024-03-07T08:15:56;17.87;;;10.37;;
9124;SDS011;4597;48.730;9.114;2024-03-07T08:18:22;17.57;;;10.63;;
9124;SDS011;4597;48.730;9.114;2024-03-07T08:20:47;19.03;;;11.13;;
9124;SDS011;4597;48.730;9.114;2024-03-07T08:23:13;20.03;;;10.70;;
9124;SDS011;4597;48.730;9.114;2024-03-07T08:25:38;18.87;;;10.90;;
9124;SDS011;4597;48.730;9.114;2024-03-07T08:28:06;18.17;;;11.10;;
9124;SDS011;4597;48.730;9.114;2024-03-07T08:30:31;17.23;;;10.70;;
9124;SDS011;4597;48.730;9.114;2024-03-07T08:32:57;15.13;;;10.00;;
9124;SDS011;4597;48.730;9.114;2024-03-07T08:35:29;17.43;;;10.77;;
9124;SDS011;4597;48.730;9.114;2024-03-07T08:37:55;17.10;;;10.50;;
9124;SDS011;4597;48.730;9.114;2024-03-07T08:40:29;15.70;;;9.97;;
9124;SDS011;4597;48.730;9.114;2024-03-07T08:42:59;14.70;;;9.53;;
9124;SDS011;4597;48.730;9.114;2024-03-07T08:45:25;14.13;;;8.70;;
9124;SDS011;4597;48.730;9.114;2024-03-07T08:47:52;14.47;;;9.60;;
9124;SDS011;4597;48.730;9.114;2024-03-07T08:50:19;16.00;;;10.37;;
9124;SDS011;4597;48.730;9.114;2024-03-07T08:52:45;15.60;;;10.00;;
9124;SDS011;4597;48.730;9.114;2024-03-07T08:55:13;14.57;;;9.90;;
9124;SDS011;4597;48.730;9.114;2024-03-07T08:57:40;13.23;;;9.53;;
9124;SDS011;4597;48.730;9.114;2024-03-07T09:00:06;15.50;;;10.40;;
9124;SDS011;4597;48.730;9.114;2024-03-07T09:02:33;15.80;;;9.87;;
9124;SDS011;4597;48.730;9.114;2024-03-07T09:05:00;17.47;;;10.33;;
9124;SDS011;4597;48.730;9.114;2024-03-07T09:07:26;15.33;;;10.17;;
9124;SDS011;4597;48.730;9.114;2024-03-07T09:09:51;16.90;;;10.67;;
9124;SDS011;4597;48.730;9.114;2024-03-07T09:12:17;16.77;;;10.30;;
9124;SDS011;4597;48.730;9.114;2024-03-07T09:14:45;22.70;;;11.30;;
9124;SDS011;4597;48.730;9.114;2024-03-07T09:17:10;13.70;;;9.97;;
9124;SDS011;4597;48.730;9.114;2024-03-07T09:19:37;16.47;;;10.80;;
9124;SDS011;4597;48.730;9.114;2024-03-07T09:22:02;16.37;;;10.53;;
9124;SDS011;4597;48.730;9.114;2024-03-07T09:24:29;16.07;;;10.13;;
9124;SDS011;4597;48.730;9.114;2024-03-07T09:26:55;14.27;;;9.97;;
9124;SDS011;4597;48.730;9.114;2024-03-07T09:29:21;18.20;;;10.50;;
9124;SDS011;4597;48.730;9.114;2024-03-07T09:31:50;16.77;;;10.57;;
9124;SDS011;4597;48.730;9.114;2024-03-07T09:34:19;17.10;;;10.67;;
9124;SDS011;4597;48.730;9.114;2024-03-07T09:36:48;15.50;;;10.43;;
9124;SDS011;4597;48.730;9.114;2024-03-07T09:39:14;16.27;;;10.70;;
9124;SDS011;4597;48.730;9.114;2024-03-07T09:41:40;18.87;;;10.70;;
9124;SDS011;4597;48.730;9.114;2024-03-07T09:44:09;19.03;;;11.27;;
9124;SDS011;4597;48.730;9.114;2024-03-07T09:46:42;15.93;;;10.20;;
9124;SDS011;4597;48.730;9.114;2024-03-07T09:49:11;14.73;;;10.63;;
9124;SDS011;4597;48.730;9.114;2024-03-07T09:51:38;18.17;;;10.37;;
9124;SDS011;4597;48.730;9.114;2024-03-07T09:54:04;16.17;;;10.30;;
9124;SDS011;4597;48.730;9.114;2024-03-07T09:56:30;14.97;;;10.90;;
9124;SDS011;4597;48.730;9.114;2024-03-07T09:59:01;16.00;;;10.60;;
9124;SDS011;4597;48.730;9.114;2024-03-07T10:01:29;17.60;;;11.10;;
9124;SDS011;4597;48.730;9.114;2024-03-07T10:03:59;18.67;;;11.27;;
9124;SDS011;4597;48.730;9.114;2024-03-07T10:06:39;17.97;;;11.40;;
9124;SDS011;4597;48.730;9.114;2024-03-07T10:09:08;13.87;;;10.20;;
9124;SDS011;4597;48.730;9.114;2024-03-07T10:11:38;14.80;;;9.97;;
9124;SDS011;4597;48.730;9.114;2024-03-07T10:14:04;14.20;;;9.57;;
9124;SDS011;4597;48.730;9.114;2024-03-07T10:16:29;16.57;;;10.97;;
9124;SDS011;4597;48.730;9.114;2024-03-07T10:18:56;15.37;;;9.90;;
9124;SDS011;4597;48.730;9.114;2024-03-07T10:21:22;16.47;;;10.20;;
9124;SDS011;4597;48.730;9.114;2024-03-07T10:23:49;15.33;;;10.47;;
9124;SDS011;4597;48.730;9.114;2024-03-07T10:26:16;13.73;;;10.00;;
9124;SDS011;4597;48.730;9.114;2024-03-07T10:28:42;15.53;;;10.90;;
9124;SDS011;4597;48.730;9.114;2024-03-07T10:31:08;14.23;;;10.10;;
9124;SDS011;4597;48.730;9.114;2024-03-07T10:33:36;14.17;;;9.97;;
9124;SDS011;4597;48.730;9.114;2024-03-07T10:36:02;16.07;;;10.87;;
9124;SDS011;4597;48.730;9.114;2024-03-07T10:38:28;17.30;;;11.10;;
9124;SDS011;4597;48.730;9.114;2024-03-07T10:40:54;14.70;;;10.70;;
9124;SDS011;4597;48.730;9.114;2024-03-07T10:43:21;19.83;;;11.07;;
9124;SDS011;4597;48.730;9.114;2024-03-07T10:45:47;16.77;;;11.23;;
9124;SDS011;4597;48.730;9.114;2024-03-07T10:48:16;17.63;;;11.63;;
9124;SDS011;4597;48.730;9.114;2024-03-07T10:53:45;17.77;;;11.00;;
9124;SDS011;4597;48.730;9.114;2024-03-07T10:59:11;17.13;;;11.37;;
9124;SDS011;4597;48.730;9.114;2024-03-07T11:02:07;17.93;;;11.57;;
9124;SDS011;4597;48.730;9.114;2024-03-07T11:04:41;16.50;;;11.70;;
9124;SDS011;4597;48.730;9.114;2024-03-07T11:07:06;19.53;;;11.67;;
9124;SDS011;4597;48.730;9.114;2024-03-07T11:09:35;16.03;;;10.73;;
9124;SDS011;4597;48.730;9.114;2024-03-07T11:12:02;21.47;;;12.13;;
9124;SDS011;4597;48.730;9.114;2024-03-07T11:14:28;18.63;;;11.03;;
9124;SDS011;4597;48.730;9.114;2024-03-07T11:16:56;16.63;;;12.07;;
9124;SDS011;4597;48.730;9.114;2024-03-07T11:19:26;18.03;;;12.10;;
9124;SDS011;4597;48.730;9.114;2024-03-07T11:21:53;19.40;;;11.73;;
9124;SDS011;4597;48.730;9.114;2024-03-07T11:24:23;18.80;;;11.87;;
9124;SDS011;4597;48.730;9.114;2024-03-07T11:26:54;19.77;;;11.93;;
9124;SDS011;4597;48.730;9.114;2024-03-07T11:32:12;18.47;;;12.13;;
9124;SDS011;4597;48.730;9.114;2024-03-07T11:34:38;19.80;;;12.13;;
9124;SDS011;4597;48.730;9.114;2024-03-07T11:37:08;20.50;;;12.70;;
9124;SDS011;4597;48.730;9.114;2024-03-07T11:39:43;18.83;;;11.40;;
9124;SDS011;4597;48.730;9.114;2024-03-07T11:44:48;16.07;;;11.00;;
9124;SDS011;4597;48.730;9.114;2024-03-07T11:47:14;19.10;;;11.87;;
9124;SDS011;4597;48.730;9.114;2024-03-07T11:49:41;21.27;;;12.53;;
9124;SDS011;4597;48.730;9.114;2024-03-07T11:52:06;18.03;;;11.97;;
9124;SDS011;4597;48.730;9.114;2024-03-07T11:54:41;16.47;;;10.73;;
9124;SDS011;4597;48.730;9.114;2024-03-07T11:57:11;17.97;;;11.67;;
9124;SDS011;4597;48.730;9.114;2024-03-07T11:59:40;18.13;;;11.37;;
9124;SDS011;4597;48.730;9.114;2024-03-07T12:02:10;18.37;;;11.73;;
9124;SDS011;4597;48.730;9.114;2024-03-07T12:04:42;16.57;;;11.37;;
9124;SDS011;4597;48.730;9.114;2024-03-07T12:07:08;18.60;;;12.13;;
9124;SDS011;4597;48.730;9.114;2024-03-07T12:09:36;16.33;;;11.20;;
9124;SDS011;4597;48.730;9.114;2024-03-07T12:12:03;17.33;;;10.70;;
9124;SDS011;4597;48.730;9.114;2024-03-07T12:14:30;14.17;;;10.70;;
9124;SDS011;4597;48.730;9.114;2024-03-07T12:16:56;21.50;;;12.73;;
9124;SDS011;4597;48.730;9.114;2024-03-07T12:19:22;15.37;;;10.63;;
9124;SDS011;4597;48.730;9.114;2024-03-07T12:21:48;17.57;;;11.80;;
9124;SDS011;4597;48.730;9.114;2024-03-07T12:24:14;19.30;;;11.57;;
9124;SDS011;4597;48.730;9.114;2024-03-07T12:26:40;16.07;;;11.57;;
9124;SDS011;4597;48.730;9.114;2024-03-07T12:29:10;16.70;;;11.40;;
9124;SDS011;4597;48.730;9.114;2024-03-07T12:31:39;15.40;;;10.83;;
9124;SDS011;4597;48.730;9.114;2024-03-07T12:34:07;15.47;;;10.83;;
9124;SDS011;4597;48.730;9.114;2024-03-07T12:36:35;15.33;;;11.00;;
9124;SDS011;4597;48.730;9.114;2024-03-07T12:41:57;17.27;;;11.23;;
9124;SDS011;4597;48.730;9.114;2024-03-07T12:44:22;15.10;;;11.27;;
9124;SDS011;4597;48.730;9.114;2024-03-07T12:46:48;16.63;;;11.37;;
9124;SDS011;4597;48.730;9.114;2024-03-07T12:49:20;16.70;;;11.00;;
9124;SDS011;4597;48.730;9.114;2024-03-07T12:51:53;17.23;;;11.57;;
9124;SDS011;4597;48.730;9.114;2024-03-07T12:54:19;14.30;;;10.17;;
9124;SDS011;4597;48.730;9.114;2024-03-07T12:56:45;19.10;;;12.50;;
9124;SDS011;4597;48.730;9.114;2024-03-07T12:59:10;17.40;;;11.50;;
9124;SDS011;4597;48.730;9.114;2024-03-07T13:01:36;16.60;;;10.97;;
9124;SDS011;4597;48.730;9.114;2024-03-07T13:04:05;15.50;;;11.67;;
9124;SDS011;4597;48.730;9.114;2024-03-07T13:06:33;15.30;;;10.67;;
9124;SDS011;4597;48.730;9.114;2024-03-07T13:08:59;15.33;;;10.93;;
9124;SDS011;4597;48.730;9.114;2024-03-07T13:11:25;17.77;;;11.40;;
9124;SDS011;4597;48.730;9.114;2024-03-07T13:13:54;17.77;;;11.80;;
9124;SDS011;4597;48.730;9.114;2024-03-07T13:16:21;17.53;;;11.33;;
9124;SDS011;4597;48.730;9.114;2024-03-07T13:18:52;18.27;;;12.03;;
9124;SDS011;4597;48.730;9.114;2024-03-07T13:21:19;16.73;;;11.70;;
9124;SDS011;4597;48.730;9.114;2024-03-07T13:23:45;15.23;;;11.30;;
9124;SDS011;4597;48.730;9.114;2024-03-07T13:26:11;14.50;;;10.70;;
9124;SDS011;4597;48.730;9.114;2024-03-07T13:28:42;14.87;;;10.70;;
9124;SDS011;4597;48.730;9.114;2024-03-07T13:31:09;16.23;;;10.53;;
9124;SDS011;4597;48.730;9.114;2024-03-07T13:33:36;17.43;;;11.87;;
9124;SDS011;4597;48.730;9.114;2024-03-07T13:36:02;16.43;;;11.00;;
9124;SDS011;4597;48.730;9.114;2024-03-07T13:38:29;16.13;;;11.67;;
9124;SDS011;4597;48.730;9.114;2024-03-07T13:40:55;14.83;;;10.47;;
9124;SDS011;4597;48.730;9.114;2024-03-07T13:43:22;16.50;;;11.27;;
9124;SDS011;4597;48.730;9.114;2024-03-07T13:45:48;17.33;;;10.93;;
9124;SDS011;4597;48.730;9.114;2024-03-07T13:48:14;17.97;;;11.30;;
9124;SDS011;4597;48.730;9.114;2024-03-07T13:50:42;18.93;;;11.37;;
9124;SDS011;4597;48.730;9.114;2024-03-07T13:53:09;16.77;;;11.30;;
9124;SDS011;4597;48.730;9.114;2024-03-07T13:55:46;15.87;;;11.33;;
9124;SDS011;4597;48.730;9.114;2024-03-07T14:01:11;17.03;;;10.87;;
9124;SDS011;4597;48.730;9.114;2024-03-07T14:04:11;16.50;;;10.20;;
9124;SDS011;4597;48.730;9.114;2024-03-07T14:06:48;19.77;;;12.17;;
9124;SDS011;4597;48.730;9.114;2024-03-07T14:09:45;19.00;;;11.00;;
9124;SDS011;4597;48.730;9.114;2024-03-07T14:32:36;15.97;;;11.10;;
9124;SDS011;4597;48.730;9.114;2024-03-07T14:40:28;15.37;;;10.70;;
9124;SDS011;4597;48.730;9.114;2024-03-07T14:42:54;15.83;;;11.20;;
9124;SDS011;4597;48.730;9.114;2024-03-07T14:45:21;16.73;;;11.67;;
9124;SDS011;4597;48.730;9.114;2024-03-07T14:48:03;15.57;;;10.87;;
9124;SDS011;4597;48.730;9.114;2024-03-07T14:50:30;15.83;;;10.53;;
9124;SDS011;4597;48.730;9.114;2024-03-07T14:52:57;15.17;;;10.40;;
9124;SDS011;4597;48.730;9.114;2024-03-07T14:55:23;16.47;;;11.03;;
9124;SDS011;4597;48.730;9.114;2024-03-07T14:57:49;17.10;;;12.27;;
9124;SDS011;4597;48.730;9.114;2024-03-07T15:00:15;16.63;;;11.07;;
9124;SDS011;4597;48.730;9.114;2024-03-07T15:02:52;21.47;;;11.90;;
9124;SDS011;4597;48.730;9.114;2024-03-07T15:05:22;18.53;;;11.90;;
9124;SDS011;4597;48.730;9.114;2024-03-07T15:07:49;17.73;;;12.07;;
9124;SDS011;4597;48.730;9.114;2024-03-07T15:10:17;17.20;;;11.50;;
9124;SDS011;4597;48.730;9.114;2024-03-07T15:12:45;17.40;;;11.87;;
9124;SDS011;4597;48.730;9.114;2024-03-07T15:15:14;15.47;;;11.60;;
9124;SDS011;4597;48.730;9.114;2024-03-07T15:17:40;17.13;;;12.30;;
9124;SDS011;4597;48.730;9.114;2024-03-07T15:20:10;18.57;;;12.60;;
9124;SDS011;4597;48.730;9.114;2024-03-07T15:22:50;17.27;;;12.17;;
9124;SDS011;4597;48.730;9.114;2024-03-07T15:25:20;15.90;;;11.60;;
9124;SDS011;4597;48.730;9.114;2024-03-07T15:27:47;16.87;;;10.87;;
9124;SDS011;4597;48.730;9.114;2024-03-07T15:30:18;18.40;;;11.93;;
9124;SDS011;4597;48.730;9.114;2024-03-07T15:32:45;15.90;;;11.10;;
9124;SDS011;4597;48.730;9.114;2024-03-07T15:35:12;19.80;;;12.77;;